createdAt,value
2023-01-15T00:02:18.035Z,7.98
2023-01-15T00:04:45.530Z,8.73
2023-01-15T00:07:12.682Z,8.05
2023-01-15T00:09:39.862Z,8.61
2023-01-15T00:12:07.485Z,8.39
2023-01-15T00:14:36.121Z,8.72
2023-01-15T00:17:03.277Z,6.93
2023-01-15T00:19:30.719Z,8.56
2023-01-15T00:21:58.329Z,7.71
2023-01-15T00:24:44.122Z,6.73
2023-01-15T00:27:31.240Z,6.95
2023-01-15T00:30:01.889Z,6.75
2023-01-15T00:32:30.595Z,7.15
2023-01-15T00:35:00.541Z,6.64
2023-01-15T00:37:28.151Z,6.76
2023-01-15T00:39:55.660Z,8.20
2023-01-15T00:42:22.818Z,8.01
2023-01-15T00:44:50.029Z,7.36
2023-01-15T00:47:17.487Z,6.88
2023-01-15T00:49:44.887Z,7.20
2023-01-15T00:52:12.083Z,6.80
2023-01-15T00:54:40.786Z,7.67
2023-01-15T00:57:08.959Z,7.45
2023-01-15T00:59:36.388Z,7.39
2023-01-15T01:02:04.306Z,6.78
2023-01-15T01:04:31.533Z,7.19
2023-01-15T01:06:58.699Z,7.11
2023-01-15T01:09:26.155Z,7.43
2023-01-15T01:11:53.347Z,6.29
2023-01-15T01:14:20.504Z,6.55
2023-01-15T01:16:47.991Z,6.84
2023-01-15T01:19:19.225Z,6.39
2023-01-15T01:21:46.715Z,7.11
2023-01-15T01:24:19.186Z,6.40
2023-01-15T01:26:46.849Z,7.17
2023-01-15T01:29:15.071Z,5.14
2023-01-15T01:31:42.801Z,5.08
2023-01-15T01:34:10.297Z,6.45
2023-01-15T01:36:38.360Z,6.41
2023-01-15T01:39:05.923Z,6.45
2023-01-15T01:41:33.296Z,6.25
2023-01-15T01:44:05.037Z,6.72
2023-01-15T01:46:35.974Z,6.01
2023-01-15T01:49:13.438Z,6.87
2023-01-15T01:51:41.569Z,6.49
2023-01-15T01:54:09.309Z,6.59
2023-01-15T01:56:37.436Z,5.90
2023-01-15T01:59:05.748Z,5.39
2023-01-15T02:01:33.401Z,6.17
2023-01-15T02:04:00.913Z,6.71
2023-01-15T02:06:28.355Z,7.15
2023-01-15T02:08:55.510Z,7.35
2023-01-15T02:11:23.648Z,7.59
2023-01-15T02:13:56.192Z,6.11
2023-01-15T02:16:32.885Z,6.65
2023-01-15T02:19:01.671Z,6.23
2023-01-15T02:21:47.207Z,5.99
2023-01-15T02:24:22.377Z,6.08
2023-01-15T02:27:16.288Z,6.37
2023-01-15T02:29:52.233Z,6.71
2023-01-15T02:32:30.136Z,6.75
2023-01-15T02:35:00.651Z,6.32
2023-01-15T02:37:29.404Z,6.20
2023-01-15T02:39:57.039Z,6.32
2023-01-15T02:42:24.851Z,5.35
2023-01-15T02:44:53.332Z,6.53
2023-01-15T02:47:22.358Z,6.13
2023-01-15T02:49:49.793Z,6.58
2023-01-15T02:52:19.449Z,6.14
2023-01-15T02:54:47.940Z,6.41
2023-01-15T02:57:15.486Z,5.65
2023-01-15T02:59:46.805Z,5.48
2023-01-15T03:02:15.312Z,6.75
2023-01-15T03:04:54.948Z,4.95
2023-01-15T03:07:24.309Z,4.83
2023-01-15T03:09:52.076Z,4.49
2023-01-15T03:12:24.689Z,4.98
2023-01-15T03:14:58.997Z,5.48
2023-01-15T03:17:35.245Z,5.80
2023-01-15T03:20:05.816Z,6.24
2023-01-15T03:22:34.959Z,6.58
2023-01-15T03:25:21.561Z,6.25
2023-01-15T03:27:49.956Z,5.56
2023-01-15T03:30:19.301Z,6.65
2023-01-15T03:32:46.564Z,6.13
2023-01-15T03:35:32.631Z,5.42
2023-01-15T03:38:00.163Z,6.09
2023-01-15T03:40:28.259Z,6.22
2023-01-15T03:43:17.364Z,6.33
2023-01-15T03:45:45.189Z,7.09
2023-01-15T03:48:20.576Z,6.54
2023-01-15T03:50:48.917Z,5.48
2023-01-15T03:53:16.235Z,5.16
2023-01-15T03:55:52.534Z,4.68
2023-01-15T03:58:22.652Z,5.51
2023-01-15T04:00:51.051Z,5.15
2023-01-15T04:03:19.084Z,5.42
2023-01-15T04:05:47.595Z,6.21
2023-01-15T04:08:17.021Z,5.77
2023-01-15T04:10:53.434Z,6.00
2023-01-15T04:13:20.992Z,5.92
2023-01-15T04:15:48.676Z,5.06
2023-01-15T04:18:16.715Z,5.44
2023-01-15T04:20:44.142Z,5.84
2023-01-15T04:23:11.996Z,6.15
2023-01-15T04:25:39.456Z,6.64
2023-01-15T04:28:06.752Z,5.47
2023-01-15T04:30:34.600Z,5.75
2023-01-15T04:33:02.769Z,6.61
2023-01-15T04:35:30.037Z,6.37
2023-01-15T04:37:57.935Z,6.36
2023-01-15T04:40:43.806Z,5.90
2023-01-15T04:43:31.604Z,4.69
2023-01-15T04:45:59.088Z,5.14
2023-01-15T04:48:26.816Z,5.86
2023-01-15T04:50:54.684Z,6.43
2023-01-15T04:53:21.903Z,5.43
2023-01-15T04:55:49.927Z,5.57
2023-01-15T04:58:17.196Z,6.11
2023-01-15T05:00:44.417Z,5.68
2023-01-15T05:03:11.824Z,5.21
2023-01-15T05:05:38.951Z,5.01
2023-01-15T05:08:06.077Z,4.91
2023-01-15T05:10:33.911Z,5.31
2023-01-15T05:13:01.064Z,5.99
2023-01-15T05:15:28.229Z,6.00
2023-01-15T05:17:56.358Z,4.94
2023-01-15T05:20:23.551Z,5.26
2023-01-15T05:22:50.675Z,5.41
2023-01-15T05:25:18.120Z,6.05
2023-01-15T05:27:45.270Z,6.23
2023-01-15T05:30:12.579Z,5.81
2023-01-15T05:32:40.014Z,6.17
2023-01-15T05:35:07.300Z,6.15
2023-01-15T05:37:34.559Z,5.66
2023-01-15T05:40:04.349Z,4.24
2023-01-15T05:42:31.498Z,4.39
2023-01-15T05:44:58.661Z,4.35
2023-01-15T05:47:26.072Z,4.34
2023-01-15T05:49:53.231Z,4.83
2023-01-15T05:52:20.380Z,5.17
2023-01-15T05:54:49.070Z,4.80
2023-01-15T05:57:16.255Z,4.31
2023-01-15T05:59:43.488Z,4.43
2023-01-15T06:02:10.915Z,5.18
2023-01-15T06:04:38.346Z,5.00
2023-01-15T06:07:05.506Z,4.05
2023-01-15T06:09:32.739Z,5.13
2023-01-15T06:12:00.172Z,5.32
2023-01-15T06:14:27.402Z,4.86
2023-01-15T06:16:54.630Z,5.45
2023-01-15T06:19:22.096Z,5.70
2023-01-15T06:21:49.296Z,5.20
2023-01-15T06:24:18.377Z,5.37
2023-01-15T06:26:45.924Z,6.12
2023-01-15T06:29:17.478Z,5.42
2023-01-15T06:31:44.689Z,5.64
2023-01-15T06:34:12.166Z,6.56
2023-01-15T06:36:39.284Z,5.82
2023-01-15T06:39:06.425Z,6.30
2023-01-15T06:41:52.645Z,7.26
2023-01-15T06:44:38.612Z,5.95
2023-01-15T06:47:20.920Z,7.33
2023-01-15T06:49:48.991Z,7.17
2023-01-15T06:52:16.468Z,6.96
2023-01-15T06:54:43.641Z,7.80
2023-01-15T06:57:10.812Z,7.67
2023-01-15T06:59:38.258Z,7.83
2023-01-15T07:02:05.511Z,7.76
2023-01-15T07:04:32.694Z,7.99
2023-01-15T07:07:00.134Z,7.59
2023-01-15T07:09:27.281Z,7.72
2023-01-15T07:11:54.559Z,7.77
2023-01-15T07:14:22.968Z,8.48
2023-01-15T07:16:50.654Z,7.79
2023-01-15T07:19:18.037Z,8.16
2023-01-15T07:21:45.715Z,8.32
2023-01-15T07:24:13.690Z,8.69
2023-01-15T07:26:41.409Z,9.08
2023-01-15T07:29:08.914Z,8.85
2023-01-15T07:31:36.140Z,8.64
2023-01-15T07:34:07.943Z,7.85
2023-01-15T07:36:35.449Z,7.54
2023-01-15T07:39:06.142Z,7.17
2023-01-15T07:41:51.865Z,8.14
2023-01-15T07:44:39.045Z,8.06
2023-01-15T07:47:43.941Z,6.75
2023-01-15T07:50:15.765Z,7.13
2023-01-15T07:52:43.004Z,7.16
2023-01-15T07:55:12.574Z,6.99
2023-01-15T07:57:40.695Z,6.66
2023-01-15T08:00:15.127Z,6.92
2023-01-15T08:02:42.879Z,6.45
2023-01-15T08:05:11.580Z,6.16
2023-01-15T08:07:40.398Z,5.81
2023-01-15T08:10:08.821Z,6.40
2023-01-15T08:12:57.119Z,6.72
2023-01-15T08:15:25.223Z,5.33
2023-01-15T08:17:52.556Z,6.25
2023-01-15T08:20:21.110Z,5.88
2023-01-15T08:22:48.607Z,5.86
2023-01-15T08:25:16.849Z,4.80
2023-01-15T08:27:44.284Z,5.19
2023-01-15T08:30:13.277Z,5.94
2023-01-15T08:32:40.618Z,6.46
2023-01-15T08:35:08.465Z,6.18
2023-01-15T08:37:35.896Z,6.22
2023-01-15T08:40:03.059Z,6.74
2023-01-15T08:42:30.347Z,5.95
2023-01-15T08:44:57.770Z,6.31
2023-01-15T08:47:24.937Z,6.44
2023-01-15T08:49:52.272Z,6.43
2023-01-15T08:52:19.717Z,7.12
2023-01-15T08:54:46.956Z,7.63
2023-01-15T08:57:14.192Z,6.80
2023-01-15T08:59:45.407Z,6.22
2023-01-15T09:02:13.330Z,6.42
2023-01-15T09:04:40.678Z,6.63
2023-01-15T09:07:08.985Z,6.08
2023-01-15T09:09:36.261Z,7.25
2023-01-15T09:12:06.511Z,7.27
2023-01-15T09:14:55.580Z,7.58
2023-01-15T09:17:21.140Z,7.83
2023-01-15T09:19:48.572Z,6.80
2023-01-15T09:22:15.863Z,6.45
2023-01-15T09:24:43.027Z,6.41
2023-01-15T09:27:13.608Z,6.86
2023-01-15T09:29:40.845Z,6.70
2023-01-15T09:32:09.913Z,6.17
2023-01-15T09:34:37.432Z,6.77
2023-01-15T09:37:04.639Z,7.09
2023-01-15T09:39:34.153Z,6.95
2023-01-15T09:42:12.852Z,7.25
2023-01-15T09:44:58.660Z,7.44
2023-01-15T09:47:26.149Z,7.28
2023-01-15T09:49:58.511Z,6.68
2023-01-15T09:52:35.067Z,7.90
2023-01-15T09:55:13.610Z,7.47
2023-01-15T09:57:41.337Z,7.25
2023-01-15T10:00:13.499Z,6.87
2023-01-15T10:02:45.750Z,7.29
2023-01-15T10:05:23.638Z,7.78
2023-01-15T10:07:56.244Z,7.64
2023-01-15T10:10:25.304Z,7.94
2023-01-15T10:12:54.104Z,7.02
2023-01-15T10:15:23.796Z,8.02
2023-01-15T10:17:53.706Z,8.11
2023-01-15T10:20:23.653Z,8.43
2023-01-15T10:22:51.115Z,8.49
2023-01-15T10:25:19.713Z,8.04
2023-01-15T10:27:48.770Z,9.00
2023-01-15T10:30:37.042Z,8.04
2023-01-15T10:33:06.935Z,7.39
2023-01-15T10:35:56.017Z,7.53
2023-01-15T10:38:33.697Z,7.45
2023-01-15T10:41:25.470Z,8.16
2023-01-15T10:43:54.595Z,7.97
2023-01-15T10:46:32.405Z,7.89
2023-01-15T10:49:00.168Z,8.26
2023-01-15T10:51:33.991Z,8.58
2023-01-15T10:54:20.151Z,8.90
2023-01-15T10:56:51.679Z,10.03
2023-01-15T10:59:22.175Z,8.27
2023-01-15T11:01:53.147Z,7.82
2023-01-15T11:04:21.233Z,8.39
2023-01-15T11:06:50.119Z,8.61
2023-01-15T11:09:22.211Z,9.17
2023-01-15T11:11:59.880Z,8.56
2023-01-15T11:14:53.074Z,8.93
2023-01-15T11:17:39.070Z,8.61
2023-01-15T11:20:15.153Z,8.75
2023-01-15T11:22:44.861Z,9.72
2023-01-15T11:25:12.444Z,8.98
2023-01-15T11:27:40.314Z,8.49
2023-01-15T11:30:24.432Z,7.95
2023-01-15T11:32:54.860Z,7.84
2023-01-15T11:35:22.330Z,8.47
2023-01-15T11:37:49.638Z,8.84
2023-01-15T11:40:21.145Z,9.78
2023-01-15T11:43:07.897Z,8.63
2023-01-15T11:45:54.317Z,8.41
2023-01-15T11:48:41.623Z,8.68
2023-01-15T11:51:15.145Z,8.92
2023-01-15T11:53:42.929Z,8.90
2023-01-15T11:56:10.937Z,9.19
2023-01-15T11:58:42.884Z,9.21
2023-01-15T12:01:12.314Z,9.41
2023-01-15T12:03:39.913Z,9.94
2023-01-15T12:06:12.020Z,9.27
2023-01-15T12:08:39.558Z,8.91
2023-01-15T12:11:25.134Z,9.97
2023-01-15T12:14:02.803Z,9.44
2023-01-15T12:16:40.636Z,9.27
2023-01-15T12:19:20.313Z,10.17
2023-01-15T12:21:57.378Z,9.45
2023-01-15T12:24:34.844Z,10.43
2023-01-15T12:27:02.172Z,10.11
2023-01-15T12:29:32.037Z,9.37
2023-01-15T12:32:02.008Z,9.78
2023-01-15T12:34:37.913Z,9.95
2023-01-15T12:37:06.660Z,9.97
2023-01-15T12:39:45.656Z,10.05
2023-01-15T12:42:32.778Z,9.50
2023-01-15T12:45:04.969Z,9.38
2023-01-15T12:47:39.838Z,10.63
2023-01-15T12:50:07.673Z,11.01
2023-01-15T12:52:36.491Z,10.94
2023-01-15T12:55:14.859Z,10.55
2023-01-15T12:57:44.221Z,10.53
2023-01-15T13:00:18.700Z,10.17
2023-01-15T13:02:56.040Z,10.21
2023-01-15T13:05:30.412Z,10.01
2023-01-15T13:08:00.140Z,10.01
2023-01-15T13:10:28.251Z,10.22
2023-01-15T13:12:55.999Z,10.03
2023-01-15T13:15:25.691Z,9.71
2023-01-15T13:18:09.762Z,10.70
2023-01-15T13:21:03.909Z,11.03
2023-01-15T13:23:50.312Z,10.69
2023-01-15T13:26:24.079Z,10.44
2023-01-15T13:28:53.497Z,10.59
2023-01-15T13:31:21.600Z,10.36
2023-01-15T13:33:50.329Z,9.93
2023-01-15T13:36:28.235Z,10.50
2023-01-15T13:38:57.217Z,10.08
2023-01-15T13:41:44.863Z,10.20
2023-01-15T13:44:16.495Z,10.62
2023-01-15T13:46:43.951Z,10.93
2023-01-15T13:49:17.016Z,11.27
2023-01-15T13:51:47.189Z,11.02
2023-01-15T13:54:19.099Z,11.63
2023-01-15T13:56:46.868Z,10.87
2023-01-15T13:59:40.030Z,11.40
2023-01-15T14:02:34.890Z,11.35
2023-01-15T14:05:20.877Z,10.67
2023-01-15T14:07:48.755Z,11.28
2023-01-15T14:10:20.905Z,11.56
2023-01-15T14:13:07.852Z,12.03
2023-01-15T14:15:44.787Z,10.38
2023-01-15T14:18:32.306Z,11.12
2023-01-15T14:21:06.258Z,10.51
2023-01-15T14:23:57.062Z,11.29
2023-01-15T14:26:27.902Z,10.93
2023-01-15T14:29:13.984Z,10.43
2023-01-15T14:31:42.268Z,10.52
2023-01-15T14:34:10.412Z,11.23
2023-01-15T14:36:45.992Z,11.43
2023-01-15T14:39:34.211Z,11.05
2023-01-15T14:42:39.528Z,11.01
2023-01-15T14:45:13.230Z,10.97
2023-01-15T14:47:47.489Z,10.88
2023-01-15T14:50:22.816Z,10.78
2023-01-15T14:52:51.484Z,10.68
2023-01-15T14:55:19.546Z,11.52
2023-01-15T14:58:14.590Z,11.46
2023-01-15T15:00:43.392Z,11.13
2023-01-15T15:03:21.639Z,11.10
2023-01-15T15:05:49.649Z,11.11
2023-01-15T15:08:18.265Z,11.59
2023-01-15T15:10:47.782Z,11.12
2023-01-15T15:13:20.142Z,11.48
2023-01-15T15:15:57.751Z,11.09
2023-01-15T15:18:33.249Z,11.30
2023-01-15T15:21:27.037Z,11.65
2023-01-15T15:24:13.475Z,11.66
2023-01-15T15:26:41.134Z,11.56
2023-01-15T15:29:09.218Z,10.77
2023-01-15T15:31:37.966Z,11.19
2023-01-15T15:34:06.845Z,11.90
2023-01-15T15:36:37.606Z,11.72
2023-01-15T15:39:33.408Z,10.71
2023-01-15T15:42:20.117Z,11.13
2023-01-15T15:45:10.365Z,11.24
2023-01-15T15:47:57.649Z,11.13
2023-01-15T15:50:26.320Z,12.27
2023-01-15T15:52:58.544Z,12.01
2023-01-15T15:55:28.616Z,12.25
2023-01-15T15:57:57.641Z,12.21
2023-01-15T16:00:30.436Z,11.37
2023-01-15T16:03:00.578Z,10.79
2023-01-15T16:05:31.749Z,11.80
2023-01-15T16:08:29.293Z,11.73
2023-01-15T16:10:58.934Z,11.53
2023-01-15T16:13:31.261Z,12.24
2023-01-15T16:16:00.102Z,12.11
2023-01-15T16:18:29.840Z,12.90
2023-01-15T16:20:57.812Z,13.01
2023-01-15T16:23:27.797Z,12.73
2023-01-15T16:26:08.483Z,13.14
2023-01-15T16:28:37.968Z,13.20
2023-01-15T16:31:07.340Z,13.27
2023-01-15T16:33:35.511Z,12.93
2023-01-15T16:36:05.141Z,11.59
2023-01-15T16:38:33.962Z,11.81
2023-01-15T16:41:02.336Z,12.52
2023-01-15T16:43:30.325Z,13.14
2023-01-15T16:46:00.603Z,13.43
2023-01-15T16:48:30.429Z,13.05
2023-01-15T16:51:00.350Z,12.10
2023-01-15T16:53:33.112Z,12.57
2023-01-15T16:56:03.588Z,12.47
2023-01-15T16:58:41.505Z,11.51
2023-01-15T17:01:43.025Z,12.10
2023-01-15T17:04:25.152Z,12.56
2023-01-15T17:06:57.179Z,11.40
2023-01-15T17:09:26.968Z,11.09
2023-01-15T17:11:57.865Z,11.29
2023-01-15T17:14:27.537Z,11.13
2023-01-15T17:17:15.517Z,11.40
2023-01-15T17:19:46.628Z,11.20
2023-01-15T17:22:24.009Z,12.21
2023-01-15T17:24:53.325Z,12.12
2023-01-15T17:27:23.626Z,12.25
2023-01-15T17:29:52.013Z,12.43
2023-01-15T17:32:33.355Z,11.86
2023-01-15T17:35:01.571Z,11.99
2023-01-15T17:37:29.720Z,12.10
2023-01-15T17:39:58.323Z,12.56
2023-01-15T17:42:26.792Z,11.23
2023-01-15T17:44:55.920Z,11.88
2023-01-15T17:47:23.954Z,12.75
2023-01-15T17:49:54.032Z,12.63
2023-01-15T17:52:22.706Z,13.08
2023-01-15T17:55:09.677Z,12.61
2023-01-15T17:57:56.981Z,13.57
2023-01-15T18:00:44.225Z,12.90
2023-01-15T18:03:36.044Z,13.18
2023-01-15T18:06:05.872Z,12.37
2023-01-15T18:08:35.123Z,12.58
2023-01-15T18:11:03.706Z,12.35
2023-01-15T18:13:34.008Z,11.96
2023-01-15T18:16:03.131Z,12.64
2023-01-15T18:18:31.812Z,12.92
2023-01-15T18:21:02.495Z,13.46
2023-01-15T18:23:33.350Z,11.89
2023-01-15T18:26:06.002Z,13.22
2023-01-15T18:28:36.540Z,12.43
2023-01-15T18:31:05.194Z,12.82
2023-01-15T18:33:33.255Z,12.32
2023-01-15T18:36:08.940Z,13.21
2023-01-15T18:38:37.857Z,13.56
2023-01-15T18:41:09.484Z,13.70
2023-01-15T18:43:56.413Z,14.14
2023-01-15T18:46:44.850Z,14.49
2023-01-15T18:49:14.862Z,14.32
2023-01-15T18:51:43.786Z,13.73
2023-01-15T18:54:13.955Z,14.39
2023-01-15T18:56:43.378Z,14.61
2023-01-15T18:59:14.665Z,14.76
2023-01-15T19:01:42.854Z,14.92
2023-01-15T19:04:13.674Z,15.08
2023-01-15T19:06:42.224Z,14.71
2023-01-15T19:09:17.284Z,14.87
2023-01-15T19:11:49.372Z,14.64
2023-01-15T19:14:35.950Z,14.94
2023-01-15T19:17:22.835Z,15.16
2023-01-15T19:19:52.632Z,14.82
2023-01-15T19:22:39.754Z,14.97
2023-01-15T19:25:09.534Z,15.17
2023-01-15T19:27:40.955Z,15.28
2023-01-15T19:30:09.628Z,15.24
2023-01-15T19:32:38.859Z,15.35
2023-01-15T19:35:07.185Z,14.44
2023-01-15T19:37:41.581Z,14.79
2023-01-15T19:40:32.083Z,15.04
2023-01-15T19:43:19.858Z,15.04
2023-01-15T19:46:15.017Z,14.73
2023-01-15T19:49:01.619Z,14.91
2023-01-15T19:51:48.957Z,15.03
2023-01-15T19:54:36.927Z,14.90
2023-01-15T19:57:06.612Z,14.92
2023-01-15T19:59:35.147Z,15.15
2023-01-15T20:02:04.694Z,14.84
2023-01-15T20:04:33.481Z,14.78
2023-01-15T20:07:02.166Z,14.82
2023-01-15T20:09:30.755Z,15.07
2023-01-15T20:12:19.134Z,15.02
2023-01-15T20:14:47.448Z,14.87
2023-01-15T20:17:19.489Z,14.96
2023-01-15T20:19:47.978Z,14.57
2023-01-15T20:22:17.409Z,14.75
2023-01-15T20:24:46.169Z,14.87
2023-01-15T20:27:15.067Z,14.75
2023-01-15T20:29:46.137Z,14.51
2023-01-15T20:32:14.746Z,14.87
2023-01-15T20:34:43.748Z,14.63
2023-01-15T20:37:11.370Z,14.51
2023-01-15T20:39:40.744Z,14.57
2023-01-15T20:42:29.093Z,14.63
2023-01-15T20:44:57.559Z,14.36
2023-01-15T20:47:46.354Z,14.52
2023-01-15T20:50:15.900Z,14.32
2023-01-15T20:52:45.602Z,14.26
2023-01-15T20:55:14.314Z,14.70
2023-01-15T20:57:43.968Z,14.67
2023-01-15T21:00:14.431Z,14.64
2023-01-15T21:02:42.709Z,14.69
2023-01-15T21:05:10.623Z,14.91
2023-01-15T21:07:39.912Z,14.74
2023-01-15T21:10:09.615Z,14.99
2023-01-15T21:12:37.497Z,15.05
2023-01-15T21:15:07.080Z,15.00
2023-01-15T21:17:34.756Z,14.99
2023-01-15T21:20:03.780Z,15.01
2023-01-15T21:22:32.117Z,14.94
2023-01-15T21:24:59.579Z,14.47
2023-01-15T21:27:28.393Z,14.52
2023-01-15T21:29:59.050Z,14.78
2023-01-15T21:32:26.894Z,14.83
2023-01-15T21:34:54.334Z,14.64
2023-01-15T21:37:22.406Z,14.95
2023-01-15T21:39:50.228Z,14.84
2023-01-15T21:42:36.972Z,14.91
2023-01-15T21:45:05.354Z,14.47
2023-01-15T21:47:32.702Z,14.26
2023-01-15T21:50:00.204Z,14.67
2023-01-15T21:52:29.380Z,14.32
2023-01-15T21:54:56.656Z,14.15
2023-01-15T21:57:23.835Z,14.40
2023-01-15T21:59:51.456Z,14.58
2023-01-15T22:02:20.138Z,14.50
2023-01-15T22:04:48.529Z,14.56
2023-01-15T22:07:16.352Z,14.44
2023-01-15T22:09:43.601Z,14.52
2023-01-15T22:12:14.074Z,14.58
2023-01-15T22:14:41.219Z,14.65
2023-01-15T22:17:10.259Z,14.55
2023-01-15T22:19:37.964Z,14.62
2023-01-15T22:22:08.371Z,13.96
2023-01-15T22:24:36.027Z,14.22
2023-01-15T22:27:06.561Z,14.35
2023-01-15T22:29:38.184Z,14.00
2023-01-15T22:32:06.097Z,14.10
2023-01-15T22:34:34.862Z,14.23
2023-01-15T22:37:02.096Z,14.50
2023-01-15T22:39:30.316Z,14.43
2023-01-15T22:42:16.017Z,13.98
2023-01-15T22:44:45.043Z,14.10
2023-01-15T22:47:12.634Z,14.27
2023-01-15T22:49:39.786Z,13.99
2023-01-15T22:52:07.492Z,13.95
2023-01-15T22:54:34.803Z,13.83
2023-01-15T22:57:02.064Z,14.04
2023-01-15T22:59:29.601Z,13.81
2023-01-15T23:01:56.868Z,14.04
2023-01-15T23:04:24.563Z,14.15
2023-01-15T23:06:52.734Z,14.02
2023-01-15T23:09:20.582Z,14.24
2023-01-15T23:11:47.753Z,14.07
2023-01-15T23:14:15.779Z,14.27
2023-01-15T23:16:43.250Z,14.25
2023-01-15T23:19:10.500Z,14.24
2023-01-15T23:21:38.489Z,14.32
2023-01-15T23:24:05.762Z,13.75
2023-01-15T23:26:33.622Z,13.24
2023-01-15T23:29:01.076Z,14.05
2023-01-15T23:31:28.376Z,13.43
2023-01-15T23:33:55.560Z,13.70
2023-01-15T23:36:23.312Z,13.77
2023-01-15T23:38:50.437Z,13.98
2023-01-15T23:41:18.671Z,13.59
2023-01-15T23:44:04.990Z,13.81
2023-01-15T23:46:35.513Z,13.29
2023-01-15T23:49:04.832Z,13.38
2023-01-15T23:51:33.134Z,13.97
2023-01-15T23:54:00.666Z,14.25
2023-01-15T23:56:28.658Z,14.25
2023-01-15T23:58:56.233Z,14.29
